Time;durP1;ratioP1;P1;durP2;ratioP2;P2;SDS_P1;SDS_P2;PMS_P1;PMS_P2;Temp;Humidity;BMP_temperature;BMP_pressure;BME280_temperature;BME280_humidity;BME280_pressure;Samples;Min_cycle;Max_cycle;Signal;HPM_P1;HPM_P2
2021/08/15 00:00:54;;;;;;;;;;;;;;;18.30;92.78;98210.47;1731012;82;20214;-80
2021/08/15 00:03:20;;;;;;;;;;;;;;;18.33;92.12;98216.66;1730963;83;21089;-75
2021/08/15 00:05:46;;;;;;;;;;;;;;;18.30;92.75;98211.03;1730862;82;20174;-80
2021/08/15 00:08:11;;;;;;;;;;;;;;;18.27;92.87;98207.55;1730952;82;20233;-80
2021/08/15 00:10:42;;;;;;;;;;;;;;;18.25;92.72;98209.82;1730774;83;20147;-75
2021/08/15 00:13:06;;;;;;;;;;;;;;;18.22;92.24;98211.28;1729905;83;20144;-80
2021/08/15 00:15:32;;;;;;;;;;;;;;;18.21;92.19;98206.12;1730982;82;21043;-80
2021/08/15 00:17:58;;;;;;;;;;;;;;;18.18;91.34;98207.56;1730767;83;20136;-75
2021/08/15 00:20:24;;;;;;;;;;;;;;;18.13;91.58;98211.06;1730927;83;20190;-80
2021/08/15 00:22:50;;;;;;;;;;;;;;;18.10;91.24;98204.27;1730686;83;20637;-79
2021/08/15 00:25:16;;;;;;;;;;;;;;;18.08;91.61;98202.42;1730906;82;20415;-80
2021/08/15 00:27:43;;;;;;;;;;;;;;;17.97;92.15;98208.80;1730945;83;21792;-80
2021/08/15 00:30:10;;;;;;;;;;;;;;;17.87;92.05;98204.22;1730902;83;20157;-75
2021/08/15 00:32:37;;;;;;;;;;;;;;;17.83;91.69;98199.93;1730959;83;20137;-75
2021/08/15 00:35:04;;;;;;;;;;;;;;;17.79;92.66;98200.34;1731032;82;20415;-75
2021/08/15 00:37:31;;;;;;;;;;;;;;;17.85;94.18;98195.49;1730947;82;20415;-75
2021/08/15 00:39:57;;;;;;;;;;;;;;;17.91;92.90;98195.58;1730906;83;21789;-76
2021/08/15 00:42:22;;;;;;;;;;;;;;;17.94;93.12;98197.66;1730580;82;20773;-75
2021/08/15 00:44:48;;;;;;;;;;;;;;;17.90;92.43;98192.60;1730959;82;20300;-80
2021/08/15 00:47:14;;;;;;;;;;;;;;;17.88;91.85;98194.87;1730690;82;20209;-80
2021/08/15 00:49:40;;;;;;;;;;;;;;;17.80;91.88;98195.11;1730809;82;20321;-75
2021/08/15 00:52:06;;;;;;;;;;;;;;;17.70;91.61;98197.61;1721944;83;21011;-75
2021/08/15 00:54:33;;;;;;;;;;;;;;;17.67;91.01;98198.77;1733425;83;20192;-75
2021/08/15 00:56:59;;;;;;;;;;;;;;;17.62;91.59;98198.94;1731372;82;20431;-80
2021/08/15 00:59:25;;;;;;;;;;;;;;;17.57;92.75;98196.34;1710508;83;20415;-75
2021/08/15 01:01:52;;;;;;;;;;;;;;;17.55;93.29;98199.97;1730711;83;20158;-80
2021/08/15 01:04:18;;;;;;;;;;;;;;;17.53;94.26;98198.93;1730773;83;21051;-75
2021/08/15 01:06:44;;;;;;;;;;;;;;;17.54;94.14;98197.80;1730631;83;20423;-80
2021/08/15 01:09:10;;;;;;;;;;;;;;;17.58;92.93;98196.58;1730610;82;20140;-80
2021/08/15 01:11:36;;;;;;;;;;;;;;;17.59;93.83;98199.00;1730717;83;20163;-79
2021/08/15 01:14:05;;;;;;;;;;;;;;;17.60;94.39;98195.69;1730754;83;20262;-75
2021/08/15 01:16:32;;;;;;;;;;;;;;;17.57;94.14;98197.15;1730558;83;21306;-75
2021/08/15 01:18:57;;;;;;;;;;;;;;;17.45;94.50;98196.98;1730702;83;20156;-80
2021/08/15 01:21:23;;;;;;;;;;;;;;;17.44;93.57;98198.92;1730765;83;20198;-75
2021/08/15 01:23:49;;;;;;;;;;;;;;;17.41;92.80;98191.89;1730845;83;20143;-75
2021/08/15 01:26:17;;;;;;;;;;;;;;;17.38;93.96;98198.02;1730965;83;20229;-75
2021/08/15 01:28:43;;;;;;;;;;;;;;;17.34;94.12;98200.56;1730704;83;21132;-79
2021/08/15 01:31:10;;;;;;;;;;;;;;;17.33;92.27;98196.78;1730890;83;20229;-75
2021/08/15 01:33:37;;;;;;;;;;;;;;;17.37;92.92;98195.84;1730864;83;20176;-79
2021/08/15 01:36:03;;;;;;;;;;;;;;;17.41;93.39;98195.43;1730867;82;20159;-80
2021/08/15 01:38:30;;;;;;;;;;;;;;;17.45;93.38;98201.09;1730846;83;20168;-75
2021/08/15 01:40:56;;;;;;;;;;;;;;;17.40;93.51;98202.60;1731092;83;21137;-80
2021/08/15 01:43:22;;;;;;;;;;;;;;;17.30;93.37;98198.24;1730916;83;20194;-79
2021/08/15 01:45:48;;;;;;;;;;;;;;;17.28;92.67;98198.33;1731032;83;20137;-79
2021/08/15 01:48:13;;;;;;;;;;;;;;;17.25;93.18;98198.38;1730817;82;20915;-75
2021/08/15 01:50:39;;;;;;;;;;;;;;;17.22;93.14;98192.75;1730825;82;20182;-79
2021/08/15 01:53:10;;;;;;;;;;;;;;;17.19;92.89;98192.27;1730922;83;22005;-77
2021/08/15 01:55:39;;;;;;;;;;;;;;;17.20;94.05;98194.44;1730426;82;20120;-75
2021/08/15 01:58:07;;;;;;;;;;;;;;;17.16;94.72;98188.77;1731043;82;20104;-80
2021/08/15 02:00:34;;;;;;;;;;;;;;;17.17;94.13;98189.02;1730530;82;20164;-75
2021/08/15 02:03:00;;;;;;;;;;;;;;;17.12;93.96;98190.55;1731053;83;20144;-75
2021/08/15 02:05:26;;;;;;;;;;;;;;;17.04;95.13;98191.33;1731209;83;21084;-80
2021/08/15 02:07:54;;;;;;;;;;;;;;;17.03;94.91;98187.55;1730808;82;20206;-75
2021/08/15 02:10:19;;;;;;;;;;;;;;;17.02;92.82;98185.94;1730674;82;20164;-79
2021/08/15 02:12:45;;;;;;;;;;;;;;;16.93;94.39;98182.37;1730686;82;20632;-75
2021/08/15 02:15:11;;;;;;;;;;;;;;;16.89;94.33;98182.98;1731081;83;20725;-80
2021/08/15 02:17:36;;;;;;;;;;;;;;;16.88;94.76;98186.05;1730750;83;21054;-75
2021/08/15 02:20:04;;;;;;;;;;;;;;;16.84;94.92;98179.04;1731204;82;20253;-76
2021/08/15 02:22:30;;;;;;;;;;;;;;;16.81;94.82;98176.91;1730802;82;20143;-80
2021/08/15 02:24:56;;;;;;;;;;;;;;;16.75;95.03;98179.57;1730770;82;20151;-75
2021/08/15 02:27:22;;;;;;;;;;;;;;;16.73;94.27;98176.31;1730794;83;20154;-75
2021/08/15 02:29:47;;;;;;;;;;;;;;;16.73;94.99;98170.84;1731037;83;21080;-75
2021/08/15 02:32:13;;;;;;;;;;;;;;;16.71;95.36;98171.73;1730745;82;20190;-75
2021/08/15 02:34:39;;;;;;;;;;;;;;;16.74;94.65;98168.91;1730772;83;20281;-80
2021/08/15 02:37:04;;;;;;;;;;;;;;;16.77;94.78;98170.48;1730866;83;20166;-75
2021/08/15 02:39:30;;;;;;;;;;;;;;;16.79;94.75;98166.86;1730824;82;20301;-75
2021/08/15 02:41:56;;;;;;;;;;;;;;;16.77;94.82;98164.20;1730808;83;21752;-79
2021/08/15 02:44:22;;;;;;;;;;;;;;;16.78;94.80;98165.80;1730715;82;20730;-75
2021/08/15 02:46:47;;;;;;;;;;;;;;;16.77;95.44;98171.04;1730847;82;20190;-80
2021/08/15 02:49:13;;;;;;;;;;;;;;;16.73;95.18;98165.94;1730725;82;20174;-74
2021/08/15 02:51:39;;;;;;;;;;;;;;;16.74;95.51;98168.35;1731025;82;20186;-75
2021/08/15 02:54:05;;;;;;;;;;;;;;;16.76;96.03;98166.70;1730860;82;21074;-80
2021/08/15 02:56:30;;;;;;;;;;;;;;;16.78;94.99;98164.44;1730866;82;20198;-75
2021/08/15 02:58:56;;;;;;;;;;;;;;;16.77;95.25;98162.83;1730874;83;20253;-75
2021/08/15 03:01:22;;;;;;;;;;;;;;;16.76;94.75;98160.66;1731052;83;20214;-75
2021/08/15 03:03:48;;;;;;;;;;;;;;;16.75;94.62;98160.95;1730849;82;20249;-79
2021/08/15 03:06:13;;;;;;;;;;;;;;;16.71;95.18;98158.61;1730954;82;21924;-75
2021/08/15 03:08:39;;;;;;;;;;;;;;;16.68;94.45;98158.66;1733169;82;20221;-79
2021/08/15 03:11:05;;;;;;;;;;;;;;;16.61;95.05;98163.22;1747157;82;20284;-80
2021/08/15 03:13:31;;;;;;;;;;;;;;;16.61;94.45;98158.31;1747380;82;20169;-75
2021/08/15 03:15:56;;;;;;;;;;;;;;;16.59;94.82;98155.89;1747681;82;20186;-75
2021/08/15 03:18:22;;;;;;;;;;;;;;;16.58;95.48;98161.69;1747548;82;21082;-79
2021/08/15 03:20:48;;;;;;;;;;;;;;;16.58;95.16;98152.11;1744535;82;20221;-75
2021/08/15 03:23:14;;;;;;;;;;;;;;;16.59;94.89;98146.31;1739042;82;20162;-80
2021/08/15 03:25:39;;;;;;;;;;;;;;;16.60;94.49;98158.06;1739306;81;20166;-74
2021/08/15 03:28:05;;;;;;;;;;;;;;;16.58;94.45;98150.18;1738917;81;20158;-75
2021/08/15 03:30:31;;;;;;;;;;;;;;;16.59;94.63;98148.25;1739225;82;21842;-75
2021/08/15 03:32:57;;;;;;;;;;;;;;;16.59;94.66;98145.52;1717699;82;20143;-75
2021/08/15 03:35:23;;;;;;;;;;;;;;;16.58;94.84;98148.01;1739339;81;20221;-75
2021/08/15 03:37:49;;;;;;;;;;;;;;;16.56;95.01;98146.93;1738766;82;20568;-75
2021/08/15 03:40:15;;;;;;;;;;;;;;;16.51;95.21;98140.81;1738875;82;20162;-75
2021/08/15 03:42:40;;;;;;;;;;;;;;;16.53;94.83;98144.03;1738836;81;21832;-75
2021/08/15 03:45:07;;;;;;;;;;;;;;;16.48;95.57;98146.89;1739031;82;20185;-76
2021/08/15 03:47:33;;;;;;;;;;;;;;;16.48;95.80;98144.96;1718041;82;20132;-75
2021/08/15 03:50:00;;;;;;;;;;;;;;;16.46;95.82;98140.94;1739053;82;20203;-76
2021/08/15 03:52:26;;;;;;;;;;;;;;;16.49;96.12;98143.03;1738956;81;20136;-79
2021/08/15 03:54:52;;;;;;;;;;;;;;;16.47;96.54;98147.45;1739088;81;21032;-80
2021/08/15 03:57:18;;;;;;;;;;;;;;;16.50;96.32;98144.67;1738774;82;20158;-80
2021/08/15 03:59:44;;;;;;;;;;;;;;;16.50;96.61;98140.01;1739201;81;20187;-76
2021/08/15 04:02:10;;;;;;;;;;;;;;;16.54;95.87;98138.80;1739030;82;20136;-74
2021/08/15 04:04:36;;;;;;;;;;;;;;;16.56;95.53;98134.63;1738988;82;20166;-76
2021/08/15 04:07:03;;;;;;;;;;;;;;;16.58;95.23;98133.77;1738884;82;21077;-75
2021/08/15 04:09:29;;;;;;;;;;;;;;;16.57;94.86;98132.69;1736912;81;20160;-74
2021/08/15 04:11:54;;;;;;;;;;;;;;;16.51;94.38;98129.31;1730706;82;20209;-79
2021/08/15 04:14:22;;;;;;;;;;;;;;;16.47;94.11;98130.23;1730815;82;20284;-79
2021/08/15 04:16:48;;;;;;;;;;;;;;;16.39;94.72;98133.18;1730854;83;20143;-75
2021/08/15 04:19:14;;;;;;;;;;;;;;;16.40;93.94;98129.88;1730704;83;21771;-80
2021/08/15 04:21:40;;;;;;;;;;;;;;;16.36;94.99;98125.62;1730871;83;20677;-75
2021/08/15 04:24:05;;;;;;;;;;;;;;;16.36;95.10;98121.52;1730839;82;20246;-80
2021/08/15 04:26:31;;;;;;;;;;;;;;;16.41;94.40;98117.81;1730876;83;20134;-75
2021/08/15 04:28:57;;;;;;;;;;;;;;;16.44;94.49;98122.11;1730735;82;20186;-75
2021/08/15 04:31:23;;;;;;;;;;;;;;;16.49;94.96;98115.68;1730920;82;21082;-75
2021/08/15 04:33:48;;;;;;;;;;;;;;;16.57;94.62;98117.64;1730758;82;20166;-75
2021/08/15 04:36:14;;;;;;;;;;;;;;;16.66;93.82;98117.11;1731091;82;20174;-76
2021/08/15 04:38:40;;;;;;;;;;;;;;;16.71;94.35;98118.94;1730787;82;20139;-79
2021/08/15 04:41:06;;;;;;;;;;;;;;;16.81;93.68;98120.81;1730938;83;20139;-76
2021/08/15 04:43:32;;;;;;;;;;;;;;;16.86;94.30;98115.21;1730619;82;21071;-75
2021/08/15 04:45:59;;;;;;;;;;;;;;;16.98;93.86;98113.22;1730922;83;20144;-75
2021/08/15 04:48:25;;;;;;;;;;;;;;;17.10;93.60;98113.41;1730704;83;20148;-79
2021/08/15 04:50:50;;;;;;;;;;;;;;;17.17;93.55;98109.61;1731081;82;20221;-79
2021/08/15 04:53:16;;;;;;;;;;;;;;;17.29;93.14;98112.30;1730688;82;20202;-76
2021/08/15 04:55:42;;;;;;;;;;;;;;;17.29;93.21;98109.00;1731044;83;21081;-79
2021/08/15 04:58:07;;;;;;;;;;;;;;;17.41;92.62;98114.62;1730584;83;20221;-76
2021/08/15 05:00:34;;;;;;;;;;;;;;;17.47;92.29;98113.91;1730709;82;20193;-76
2021/08/15 05:02:59;;;;;;;;;;;;;;;17.53;92.08;98111.27;1730755;83;20129;-80
2021/08/15 05:05:25;;;;;;;;;;;;;;;17.61;92.10;98105.55;1731091;83;20265;-79
2021/08/15 05:07:51;;;;;;;;;;;;;;;17.70;91.76;98103.63;1730788;83;21050;-77
2021/08/15 05:10:17;;;;;;;;;;;;;;;17.81;91.70;98102.72;1739335;82;20165;-76
2021/08/15 05:12:42;;;;;;;;;;;;;;;17.90;91.67;98102.14;1743753;82;20213;-79
2021/08/15 05:15:09;;;;;;;;;;;;;;;18.02;91.53;98098.95;1744546;82;20213;-76
2021/08/15 05:17:34;;;;;;;;;;;;;;;18.16;91.33;98100.71;1744427;82;20127;-76
2021/08/15 05:20:00;;;;;;;;;;;;;;;18.26;90.89;98094.30;1740893;82;21096;-76
2021/08/15 05:22:26;;;;;;;;;;;;;;;18.44;90.88;98093.66;1739143;82;20173;-79
2021/08/15 05:24:52;;;;;;;;;;;;;;;18.63;90.59;98096.56;1739324;82;20190;-76
2021/08/15 05:27:18;;;;;;;;;;;;;;;18.82;90.47;98098.38;1739245;81;20141;-76
2021/08/15 05:29:43;;;;;;;;;;;;;;;18.98;89.54;98099.41;1739920;81;20182;-76
2021/08/15 05:32:09;;;;;;;;;;;;;;;19.10;89.11;98091.81;1739191;81;21076;-79
2021/08/15 05:34:35;;;;;;;;;;;;;;;19.22;88.62;98089.13;1739127;81;20165;-77
2021/08/15 05:37:01;;;;;;;;;;;;;;;19.35;88.41;98091.39;1739216;81;20233;-76
2021/08/15 05:39:26;;;;;;;;;;;;;;;19.49;88.18;98094.67;1739103;82;20700;-77
2021/08/15 05:41:52;;;;;;;;;;;;;;;19.57;87.83;98091.62;1739087;81;20186;-80
2021/08/15 05:44:18;;;;;;;;;;;;;;;19.76;88.08;98095.28;1739062;82;21142;-76
2021/08/15 05:46:44;;;;;;;;;;;;;;;19.87;87.04;98092.33;1739277;82;20397;-79
2021/08/15 05:49:10;;;;;;;;;;;;;;;20.04;87.20;98087.23;1739075;81;20248;-79
2021/08/15 05:51:36;;;;;;;;;;;;;;;20.22;87.17;98088.06;1739243;82;20819;-80
2021/08/15 05:54:01;;;;;;;;;;;;;;;20.37;86.10;98087.98;1739041;81;20217;-76
2021/08/15 05:56:31;;;;;;;;;;;;;;;20.41;85.57;98086.14;1739336;82;21159;-76
2021/08/15 05:58:55;;;;;;;;;;;;;;;20.51;85.09;98071.18;1738818;82;20384;-80
2021/08/15 06:01:20;;;;;;;;;;;;;;;20.59;85.02;98079.87;1739308;81;20336;-76
2021/08/15 06:03:46;;;;;;;;;;;;;;;20.70;84.26;98076.91;1739041;82;20135;-79
2021/08/15 06:06:12;;;;;;;;;;;;;;;20.78;83.30;98075.19;1739421;82;20238;-76
2021/08/15 06:08:38;;;;;;;;;;;;;;;20.81;82.93;98075.29;1739102;82;21130;-76
2021/08/15 06:11:03;;;;;;;;;;;;;;;20.88;82.76;98077.47;1736899;81;20237;-76
2021/08/15 06:13:29;;;;;;;;;;;;;;;21.00;82.40;98076.64;1734511;81;20166;-76
2021/08/15 06:15:55;;;;;;;;;;;;;;;21.10;82.69;98076.16;1731268;82;20139;-77
2021/08/15 06:18:21;;;;;;;;;;;;;;;21.27;82.34;98075.13;1730955;83;20695;-76
2021/08/15 06:20:46;;;;;;;;;;;;;;;21.39;81.54;98073.73;1730894;83;20571;-76
2021/08/15 06:23:13;;;;;;;;;;;;;;;21.55;81.36;98078.73;1730851;83;20213;-79
2021/08/15 06:25:38;;;;;;;;;;;;;;;21.65;81.69;98074.09;1730987;83;20164;-76
2021/08/15 06:28:04;;;;;;;;;;;;;;;21.89;82.58;98062.73;1730856;82;20158;-77
2021/08/15 06:30:30;;;;;;;;;;;;;;;22.15;79.54;98059.50;1731064;83;20222;-79
2021/08/15 06:32:56;;;;;;;;;;;;;;;22.32;79.26;98063.30;1730758;83;21076;-77
2021/08/15 06:35:23;;;;;;;;;;;;;;;22.46;79.89;98061.45;1731013;82;20162;-78
2021/08/15 06:37:50;;;;;;;;;;;;;;;22.63;78.55;98052.00;1730839;83;20133;-79
2021/08/15 06:40:16;;;;;;;;;;;;;;;22.91;79.24;98058.83;1731104;83;20615;-79
2021/08/15 06:42:42;;;;;;;;;;;;;;;23.11;78.94;98056.31;1731015;82;20221;-79
2021/08/15 06:45:09;;;;;;;;;;;;;;;23.32;77.81;98053.99;1735882;82;21877;-79
2021/08/15 06:47:35;;;;;;;;;;;;;;;23.51;76.25;98051.84;1730870;82;20092;-79
2021/08/15 06:50:03;;;;;;;;;;;;;;;23.83;75.67;98056.63;1731210;83;20191;-79
2021/08/15 06:52:30;;;;;;;;;;;;;;;24.22;75.94;98051.61;1730873;83;20140;-80
2021/08/15 06:54:58;;;;;;;;;;;;;;;24.57;74.25;98055.02;1731065;82;20160;-79
2021/08/15 06:57:24;;;;;;;;;;;;;;;24.62;73.22;98056.68;1730507;83;21855;-80
2021/08/15 06:59:49;;;;;;;;;;;;;;;24.87;74.68;98052.91;1730949;83;20746;-77
2021/08/15 07:02:15;;;;;;;;;;;;;;;24.98;73.63;98047.73;1730966;82;20170;-80
2021/08/15 07:04:41;;;;;;;;;;;;;;;24.88;72.65;98044.22;1731058;82;20671;-79
2021/08/15 07:07:07;;;;;;;;;;;;;;;25.06;72.04;98047.87;1730985;82;20160;-79
2021/08/15 07:09:33;;;;;;;;;;;;;;;25.22;72.67;98043.74;1732576;82;21875;-79
2021/08/15 07:11:59;;;;;;;;;;;;;;;25.31;71.14;98044.84;1748863;81;20177;-79
2021/08/15 07:14:25;;;;;;;;;;;;;;;25.67;68.40;98043.30;1739328;81;20173;-80
2021/08/15 07:16:51;;;;;;;;;;;;;;;26.23;67.77;98041.52;1739363;81;20179;-80
2021/08/15 07:19:17;;;;;;;;;;;;;;;26.69;65.13;98039.97;1717768;82;20144;-77
2021/08/15 07:21:43;;;;;;;;;;;;;;;27.17;63.39;98030.75;1738954;82;20776;-77
2021/08/15 07:24:09;;;;;;;;;;;;;;;27.91;66.95;98035.85;1738869;81;20252;-80
2021/08/15 07:26:34;;;;;;;;;;;;;;;27.96;61.17;98028.52;1739256;82;20182;-77
2021/08/15 07:29:00;;;;;;;;;;;;;;;28.37;59.41;98032.35;1738901;82;20150;-80
2021/08/15 07:31:26;;;;;;;;;;;;;;;28.82;60.10;98023.80;1739325;81;20210;-77
2021/08/15 07:33:52;;;;;;;;;;;;;;;29.00;56.65;98021.00;1738800;81;21071;-77
2021/08/15 07:36:17;;;;;;;;;;;;;;;29.54;56.87;98023.63;1739226;82;20149;-77
2021/08/15 07:38:43;;;;;;;;;;;;;;;29.99;60.64;98024.58;1738850;81;20170;-80
2021/08/15 07:41:10;;;;;;;;;;;;;;;30.02;55.67;98019.59;1739077;82;20174;-77
2021/08/15 07:43:35;;;;;;;;;;;;;;;30.75;55.69;98021.45;1738922;82;20111;-80
2021/08/15 07:46:01;;;;;;;;;;;;;;;30.61;56.06;98013.38;1739271;82;21102;-80
2021/08/15 07:48:28;;;;;;;;;;;;;;;30.92;54.62;98017.69;1738900;82;20683;-80
2021/08/15 07:50:54;;;;;;;;;;;;;;;31.27;53.67;98012.95;1739128;81;20092;-77
2021/08/15 07:53:24;;;;;;;;;;;;;;;31.40;52.47;98007.00;1738972;81;20202;-77
2021/08/15 07:55:51;;;;;;;;;;;;;;;31.77;52.10;98009.55;1739122;82;20139;-77
2021/08/15 07:58:17;;;;;;;;;;;;;;;32.17;52.17;98009.17;1738958;81;21073;-80
2021/08/15 08:00:43;;;;;;;;;;;;;;;32.65;51.44;98005.22;1739195;81;20418;-77
2021/08/15 08:03:09;;;;;;;;;;;;;;;32.52;48.43;98000.81;1738867;82;20135;-77
2021/08/15 08:05:35;;;;;;;;;;;;;;;32.81;46.62;97996.27;1739007;82;20154;-77
2021/08/15 08:08:01;;;;;;;;;;;;;;;32.90;46.39;97998.58;1738927;82;20190;-80
2021/08/15 08:10:26;;;;;;;;;;;;;;;32.92;46.95;97998.14;1742149;82;21045;-77
2021/08/15 08:12:52;;;;;;;;;;;;;;;33.28;45.40;97994.81;1746234;82;20738;-81
2021/08/15 08:15:18;;;;;;;;;;;;;;;33.58;45.57;97997.23;1739021;82;20762;-80
2021/08/15 08:17:44;;;;;;;;;;;;;;;33.86;43.99;97993.02;1738930;82;20591;-78
2021/08/15 08:20:12;;;;;;;;;;;;;;;34.18;44.44;97994.51;1739051;82;20209;-80
2021/08/15 08:22:38;;;;;;;;;;;;;;;34.35;42.83;97997.30;1739046;81;20972;-81
2021/08/15 08:25:04;;;;;;;;;;;;;;;34.73;43.01;97994.16;1739030;82;20215;-78
2021/08/15 08:27:30;;;;;;;;;;;;;;;34.94;41.48;97997.03;1739203;82;20143;-78
2021/08/15 08:29:56;;;;;;;;;;;;;;;35.36;42.85;97984.40;1739200;82;20162;-81
2021/08/15 08:32:22;;;;;;;;;;;;;;;35.78;42.65;97980.17;1739007;81;20678;-78
2021/08/15 08:34:47;;;;;;;;;;;;;;;36.17;40.86;97977.56;1738990;82;21745;-78
2021/08/15 08:37:13;;;;;;;;;;;;;;;36.77;40.69;97969.12;1738962;82;20708;-78
2021/08/15 08:39:39;;;;;;;;;;;;;;;37.02;41.52;97974.53;1738727;81;20265;-79
2021/08/15 08:42:06;;;;;;;;;;;;;;;37.67;39.67;97970.27;1739032;81;20166;-81
2021/08/15 08:44:33;;;;;;;;;;;;;;;37.15;37.30;97964.73;1738748;82;20167;-78
2021/08/15 08:47:02;;;;;;;;;;;;;;;37.44;40.53;97959.48;1739067;82;21057;-79
2021/08/15 08:49:28;;;;;;;;;;;;;;;37.86;37.34;97958.48;1738275;82;20156;-78
2021/08/15 08:51:53;;;;;;;;;;;;;;;38.57;36.86;97956.19;1739086;82;20170;-81
2021/08/15 08:54:19;;;;;;;;;;;;;;;39.41;34.32;97950.08;1738781;81;20170;-81
2021/08/15 08:56:45;;;;;;;;;;;;;;;39.16;33.19;97950.59;1739085;81;20174;-81
2021/08/15 08:59:10;;;;;;;;;;;;;;;38.80;32.55;97945.70;1738881;81;21138;-81
2021/08/15 09:01:40;;;;;;;;;;;;;;;39.15;32.04;97947.59;1739047;81;20157;-81
2021/08/15 09:04:06;;;;;;;;;;;;;;;40.26;31.34;97943.17;1738744;82;20143;-78
2021/08/15 09:06:32;;;;;;;;;;;;;;;40.10;31.35;97942.79;1738881;81;20209;-81
2021/08/15 09:08:59;;;;;;;;;;;;;;;39.96;29.64;97934.31;1738952;81;20139;-81
2021/08/15 09:11:26;;;;;;;;;;;;;;;40.76;31.34;97926.42;1718673;82;21691;-79
2021/08/15 09:14:15;;;;;;;;;;;;;;;40.06;28.22;97922.31;1738634;82;20413;-81
2021/08/15 09:17:04;;;;;;;;;;;;;;;38.81;29.19;97923.84;1738671;82;20403;-81
2021/08/15 09:19:39;;;;;;;;;;;;;;;40.41;29.08;97922.56;1738857;82;20175;-78
2021/08/15 09:22:23;;;;;;;;;;;;;;;40.90;30.30;97921.31;1739074;81;20167;-78
2021/08/15 09:24:58;;;;;;;;;;;;;;;40.40;28.71;97923.84;1738945;81;21299;-78
2021/08/15 09:27:30;;;;;;;;;;;;;;;40.40;28.93;97923.84;1738897;82;20159;-81
2021/08/15 09:30:18;;;;;;;;;;;;;;;39.54;27.73;97922.31;1738791;81;20145;-81
2021/08/15 09:32:50;;;;;;;;;;;;;;;37.82;31.42;97923.89;1739043;81;20451;-78
2021/08/15 09:35:18;;;;;;;;;;;;;;;37.12;32.58;97918.28;1739417;81;20168;-78
2021/08/15 09:37:44;;;;;;;;;;;;;;;37.80;31.77;97915.88;1738582;81;21106;-78
2021/08/15 09:40:25;;;;;;;;;;;;;;;36.38;32.54;97922.49;1738960;81;20232;-78
2021/08/15 09:42:51;;;;;;;;;;;;;;;35.51;34.87;97922.22;1735797;82;20171;-81
2021/08/15 09:45:19;;;;;;;;;;;;;;;34.63;35.80;97924.89;1739084;82;20131;-81
2021/08/15 09:47:45;;;;;;;;;;;;;;;33.63;37.10;97921.68;1718416;82;20423;-78
2021/08/15 09:50:20;;;;;;;;;;;;;;;33.04;38.30;97924.54;1739284;82;20837;-80
2021/08/15 09:52:46;;;;;;;;;;;;;;;32.92;38.93;97928.00;1738885;81;20131;-80
2021/08/15 09:55:12;;;;;;;;;;;;;;;33.57;38.32;97932.45;1738890;81;20213;-78
2021/08/15 09:57:38;;;;;;;;;;;;;;;35.21;36.02;97924.91;1739078;81;20535;-80
2021/08/15 10:00:05;;;;;;;;;;;;;;;34.22;37.54;97922.72;1738843;82;20165;-78
2021/08/15 10:02:31;;;;;;;;;;;;;;;35.69;35.34;97909.61;1739053;82;20991;-78
2021/08/15 10:04:57;;;;;;;;;;;;;;;37.56;33.13;97909.14;1738802;82;20170;-78
2021/08/15 10:07:24;;;;;;;;;;;;;;;36.68;34.34;97917.61;1739378;82;20148;-78
2021/08/15 10:09:50;;;;;;;;;;;;;;;35.43;36.50;97920.06;1738933;81;20443;-78
2021/08/15 10:12:16;;;;;;;;;;;;;;;32.85;42.14;97923.93;1738961;81;20185;-80
2021/08/15 10:14:42;;;;;;;;;;;;;;;31.87;44.58;97928.76;1735865;82;21117;-80
2021/08/15 10:17:11;;;;;;;;;;;;;;;30.06;49.85;97926.77;1731070;82;20193;-77
2021/08/15 10:19:54;;;;;;;;;;;;;;;28.93;52.36;97944.32;1730872;82;20156;-77
2021/08/15 10:22:25;;;;;;;;;;;;;;;28.86;52.79;97936.73;1722432;83;20092;-80
2021/08/15 10:25:03;;;;;;;;;;;;;;;28.32;54.78;97916.55;1730895;83;20198;-80
2021/08/15 10:27:52;;;;;;;;;;;;;;;27.96;54.63;97920.52;1726873;83;20111;-80
2021/08/15 10:30:24;;;;;;;;;;;;;;;27.70;58.09;97928.05;1730467;82;20127;-77
2021/08/15 10:32:59;;;;;;;;;;;;;;;27.75;56.25;97931.03;1730880;83;20133;-77
2021/08/15 10:35:32;;;;;;;;;;;;;;;27.55;59.55;97933.35;1731123;83;20168;-80
2021/08/15 10:37:59;;;;;;;;;;;;;;;27.70;58.63;97930.05;1731034;82;20415;-77
2021/08/15 10:40:45;;;;;;;;;;;;;;;27.78;58.50;97923.30;1731139;83;21269;-77
2021/08/15 10:43:13;;;;;;;;;;;;;;;27.85;56.83;97923.88;1730862;82;20194;-80
2021/08/15 10:45:39;;;;;;;;;;;;;;;27.74;57.54;97912.14;1730183;83;20128;-77
2021/08/15 10:48:12;;;;;;;;;;;;;;;27.87;57.78;97913.95;1730867;83;20412;-79
2021/08/15 10:50:51;;;;;;;;;;;;;;;27.86;57.44;97905.41;1731147;83;20419;-77
2021/08/15 10:53:29;;;;;;;;;;;;;;;28.01;56.61;97910.36;1729969;83;20908;-80
2021/08/15 10:56:05;;;;;;;;;;;;;;;28.10;56.96;97907.97;1731038;82;20133;-80
2021/08/15 10:58:37;;;;;;;;;;;;;;;28.09;57.24;97903.59;1729857;82;20419;-78
2021/08/15 11:01:13;;;;;;;;;;;;;;;28.01;57.47;97895.84;1731104;82;20419;-80
2021/08/15 11:03:48;;;;;;;;;;;;;;;28.14;57.04;97892.67;1730920;83;20152;-80
2021/08/15 11:06:38;;;;;;;;;;;;;;;28.24;57.36;97895.44;1731176;82;21737;-77
2021/08/15 11:09:05;;;;;;;;;;;;;;;28.42;57.44;97883.50;1731048;83;20115;-80
2021/08/15 11:11:33;;;;;;;;;;;;;;;28.59;58.13;97879.88;1736823;82;20136;-77
2021/08/15 11:14:19;;;;;;;;;;;;;;;28.77;57.62;97875.03;1744258;82;20128;-77
2021/08/15 11:17:11;;;;;;;;;;;;;;;28.94;56.33;97875.59;1741047;82;20422;-79
2021/08/15 11:19:37;;;;;;;;;;;;;;;29.05;56.15;97876.14;1738688;82;21031;-80
2021/08/15 11:22:08;;;;;;;;;;;;;;;29.19;56.48;97866.31;1739222;82;20162;-80
2021/08/15 11:24:36;;;;;;;;;;;;;;;29.41;55.93;97871.19;1738841;81;20411;-80
2021/08/15 11:27:02;;;;;;;;;;;;;;;29.63;53.66;97870.45;1739040;82;20163;-77
2021/08/15 11:29:28;;;;;;;;;;;;;;;29.92;54.30;97862.66;1738907;82;20156;-80
2021/08/15 11:31:55;;;;;;;;;;;;;;;29.88;53.04;97859.88;1739228;81;21085;-76
2021/08/15 11:34:21;;;;;;;;;;;;;;;29.93;52.38;97858.06;1739138;82;20168;-80
2021/08/15 11:37:02;;;;;;;;;;;;;;;29.80;52.40;97852.77;1739158;81;20132;-79
2021/08/15 11:39:31;;;;;;;;;;;;;;;29.66;51.24;97855.09;1738973;81;20160;-80
2021/08/15 11:41:58;;;;;;;;;;;;;;;29.90;52.61;97854.67;1738286;82;20151;-77
2021/08/15 11:44:23;;;;;;;;;;;;;;;29.66;52.94;97853.69;1738830;81;21903;-80
2021/08/15 11:46:49;;;;;;;;;;;;;;;29.70;52.75;97851.66;1739000;82;20190;-77
2021/08/15 11:49:33;;;;;;;;;;;;;;;29.65;52.15;97855.47;1738860;81;20182;-77
2021/08/15 11:52:18;;;;;;;;;;;;;;;29.81;53.17;97856.35;1738780;82;20122;-78
2021/08/15 11:54:44;;;;;;;;;;;;;;;29.81;52.41;97850.16;1738992;81;20145;-80
2021/08/15 11:57:11;;;;;;;;;;;;;;;29.95;53.21;97855.64;1739081;82;21043;-80
2021/08/15 11:59:39;;;;;;;;;;;;;;;30.13;52.44;97855.50;1738796;81;20458;-80
2021/08/15 12:02:06;;;;;;;;;;;;;;;30.16;52.04;97851.87;1738594;81;20128;-80
2021/08/15 12:04:33;;;;;;;;;;;;;;;30.09;52.07;97854.76;1738861;82;20458;-77
2021/08/15 12:06:59;;;;;;;;;;;;;;;29.91;52.18;97852.09;1739197;81;20140;-80
2021/08/15 12:09:30;;;;;;;;;;;;;;;29.75;52.32;97851.23;1738930;82;21131;-80
2021/08/15 12:11:58;;;;;;;;;;;;;;;29.79;52.83;97848.39;1734806;81;20152;-77
2021/08/15 12:14:33;;;;;;;;;;;;;;;29.61;53.07;97842.95;1730750;82;20152;-77
2021/08/15 12:16:58;;;;;;;;;;;;;;;29.84;53.38;97848.57;1710282;83;20140;-80
2021/08/15 12:19:26;;;;;;;;;;;;;;;29.66;54.54;97847.31;1730720;82;20163;-77
2021/08/15 12:21:52;;;;;;;;;;;;;;;29.42;54.83;97836.48;1730872;82;21037;-80
2021/08/15 12:24:19;;;;;;;;;;;;;;;29.07;55.23;97845.88;1730803;83;20178;-77
2021/08/15 12:27:01;;;;;;;;;;;;;;;29.00;55.11;97851.48;1731009;83;20152;-78
2021/08/15 12:29:31;;;;;;;;;;;;;;;28.90;54.66;97860.89;1730720;83;20136;-80
2021/08/15 12:32:21;;;;;;;;;;;;;;;28.76;54.35;97861.50;1731075;83;20148;-77
2021/08/15 12:34:56;;;;;;;;;;;;;;;28.56;54.95;97856.41;1730719;82;21753;-77
2021/08/15 12:37:23;;;;;;;;;;;;;;;28.50;55.00;97843.28;1730937;83;20171;-77
2021/08/15 12:40:04;;;;;;;;;;;;;;;28.56;55.42;97859.79;1730794;83;20152;-77
2021/08/15 12:42:29;;;;;;;;;;;;;;;28.45;55.68;97858.41;1731008;82;20156;-80
2021/08/15 12:45:02;;;;;;;;;;;;;;;28.43;56.31;97848.86;1730880;83;20250;-77
2021/08/15 12:47:31;;;;;;;;;;;;;;;28.75;55.47;97835.63;1730988;82;21053;-80
2021/08/15 12:50:06;;;;;;;;;;;;;;;30.45;51.53;97825.05;1730733;82;20144;-77